sensor_id;sensor_type;location;lat;lon;timestamp;P1;durP1;ratioP1;P2;durP2;ratioP2
72139;SDS011;60018;49.688;19.180;2022-09-27T00:02:17;1.70;;;1.43;;
72139;SDS011;60018;49.688;19.180;2022-09-27T00:04:42;1.53;;;1.43;;
72139;SDS011;60018;49.688;19.180;2022-09-27T00:07:08;1.60;;;1.47;;
72139;SDS011;60018;49.688;19.180;2022-09-27T00:09:33;1.50;;;1.33;;
72139;SDS011;60018;49.688;19.180;2022-09-27T00:11:58;1.47;;;1.37;;
72139;SDS011;60018;49.688;19.180;2022-09-27T00:14:23;1.27;;;1.17;;
72139;SDS011;60018;49.688;19.180;2022-09-27T00:16:48;1.50;;;1.37;;
72139;SDS011;60018;49.688;19.180;2022-09-27T00:19:16;1.40;;;1.27;;
72139;SDS011;60018;49.688;19.180;2022-09-27T00:21:42;1.47;;;1.37;;
72139;SDS011;60018;49.688;19.180;2022-09-27T00:24:08;1.80;;;1.43;;
72139;SDS011;60018;49.688;19.180;2022-09-27T00:26:35;1.87;;;1.63;;
72139;SDS011;60018;49.688;19.180;2022-09-27T00:29:00;1.50;;;1.40;;
72139;SDS011;60018;49.688;19.180;2022-09-27T00:31:26;2.07;;;1.87;;
72139;SDS011;60018;49.688;19.180;2022-09-27T00:33:52;1.80;;;1.47;;
72139;SDS011;60018;49.688;19.180;2022-09-27T00:36:19;1.80;;;1.53;;
72139;SDS011;60018;49.688;19.180;2022-09-27T00:38:45;1.63;;;1.47;;
72139;SDS011;60018;49.688;19.180;2022-09-27T00:41:12;2.03;;;1.80;;
72139;SDS011;60018;49.688;19.180;2022-09-27T00:43:42;2.37;;;2.17;;
72139;SDS011;60018;49.688;19.180;2022-09-27T00:46:08;1.80;;;1.53;;
72139;SDS011;60018;49.688;19.180;2022-09-27T00:48:33;2.33;;;2.13;;
72139;SDS011;60018;49.688;19.180;2022-09-27T00:51:00;2.00;;;1.67;;
72139;SDS011;60018;49.688;19.180;2022-09-27T00:53:28;2.07;;;1.83;;
72139;SDS011;60018;49.688;19.180;2022-09-27T00:55:54;2.23;;;2.03;;
72139;SDS011;60018;49.688;19.180;2022-09-27T00:58:22;2.00;;;1.67;;
72139;SDS011;60018;49.688;19.180;2022-09-27T01:00:50;2.07;;;1.83;;
72139;SDS011;60018;49.688;19.180;2022-09-27T01:03:21;2.00;;;1.77;;
72139;SDS011;60018;49.688;19.180;2022-09-27T01:05:47;2.00;;;1.77;;
72139;SDS011;60018;49.688;19.180;2022-09-27T01:08:12;2.13;;;1.93;;
72139;SDS011;60018;49.688;19.180;2022-09-27T01:10:40;1.97;;;1.77;;
72139;SDS011;60018;49.688;19.180;2022-09-27T01:13:11;1.70;;;1.40;;
72139;SDS011;60018;49.688;19.180;2022-09-27T01:15:39;1.80;;;1.37;;
72139;SDS011;60018;49.688;19.180;2022-09-27T01:18:11;1.67;;;1.57;;
72139;SDS011;60018;49.688;19.180;2022-09-27T01:23:46;2.03;;;1.77;;
72139;SDS011;60018;49.688;19.180;2022-09-27T01:26:19;1.70;;;1.43;;
72139;SDS011;60018;49.688;19.180;2022-09-27T01:31:16;1.77;;;1.53;;
72139;SDS011;60018;49.688;19.180;2022-09-27T01:33:45;2.10;;;1.90;;
72139;SDS011;60018;49.688;19.180;2022-09-27T01:36:19;2.00;;;1.70;;
72139;SDS011;60018;49.688;19.180;2022-09-27T01:38:50;1.93;;;1.63;;
72139;SDS011;60018;49.688;19.180;2022-09-27T01:41:21;2.10;;;1.90;;
72139;SDS011;60018;49.688;19.180;2022-09-27T01:43:51;2.00;;;1.63;;
72139;SDS011;60018;49.688;19.180;2022-09-27T01:46:21;1.93;;;1.73;;
72139;SDS011;60018;49.688;19.180;2022-09-27T01:48:47;1.60;;;1.43;;
72139;SDS011;60018;49.688;19.180;2022-09-27T01:51:14;1.63;;;1.37;;
72139;SDS011;60018;49.688;19.180;2022-09-27T01:53:41;1.90;;;1.67;;
72139;SDS011;60018;49.688;19.180;2022-09-27T01:56:08;1.80;;;1.53;;
72139;SDS011;60018;49.688;19.180;2022-09-27T01:58:36;1.80;;;1.53;;
72139;SDS011;60018;49.688;19.180;2022-09-27T02:01:02;1.67;;;1.53;;
72139;SDS011;60018;49.688;19.180;2022-09-27T02:03:31;1.70;;;1.47;;
72139;SDS011;60018;49.688;19.180;2022-09-27T02:05:57;2.07;;;1.77;;
72139;SDS011;60018;49.688;19.180;2022-09-27T02:08:27;1.60;;;1.47;;
72139;SDS011;60018;49.688;19.180;2022-09-27T02:10:54;1.67;;;1.43;;
72139;SDS011;60018;49.688;19.180;2022-09-27T02:13:22;1.87;;;1.63;;
72139;SDS011;60018;49.688;19.180;2022-09-27T02:15:50;1.90;;;1.53;;
72139;SDS011;60018;49.688;19.180;2022-09-27T02:18:17;1.87;;;1.50;;
72139;SDS011;60018;49.688;19.180;2022-09-27T02:20:48;1.90;;;1.53;;
72139;SDS011;60018;49.688;19.180;2022-09-27T02:23:14;2.03;;;1.77;;
72139;SDS011;60018;49.688;19.180;2022-09-27T02:25:42;1.90;;;1.60;;
72139;SDS011;60018;49.688;19.180;2022-09-27T02:28:11;1.80;;;1.50;;
72139;SDS011;60018;49.688;19.180;2022-09-27T02:30:38;1.93;;;1.70;;
72139;SDS011;60018;49.688;19.180;2022-09-27T02:33:03;1.90;;;1.67;;
72139;SDS011;60018;49.688;19.180;2022-09-27T02:35:30;1.70;;;1.57;;
72139;SDS011;60018;49.688;19.180;2022-09-27T02:37:57;1.80;;;1.57;;
72139;SDS011;60018;49.688;19.180;2022-09-27T02:40:23;2.03;;;1.73;;
72139;SDS011;60018;49.688;19.180;2022-09-27T02:42:48;2.00;;;1.77;;
72139;SDS011;60018;49.688;19.180;2022-09-27T02:45:14;2.00;;;1.77;;
72139;SDS011;60018;49.688;19.180;2022-09-27T02:50:28;1.85;;;1.42;;
72139;SDS011;60018;49.688;19.180;2022-09-27T02:52:57;1.90;;;1.45;;
72139;SDS011;60018;49.688;19.180;2022-09-27T02:55:27;2.03;;;1.77;;
72139;SDS011;60018;49.688;19.180;2022-09-27T02:57:56;2.23;;;2.03;;
72139;SDS011;60018;49.688;19.180;2022-09-27T03:00:23;1.70;;;1.30;;
72139;SDS011;60018;49.688;19.180;2022-09-27T03:02:54;2.00;;;1.57;;
72139;SDS011;60018;49.688;19.180;2022-09-27T03:05:23;2.00;;;1.73;;
72139;SDS011;60018;49.688;19.180;2022-09-27T03:07:49;1.80;;;1.47;;
72139;SDS011;60018;49.688;19.180;2022-09-27T03:10:15;1.90;;;1.60;;
72139;SDS011;60018;49.688;19.180;2022-09-27T03:12:41;1.83;;;1.63;;
72139;SDS011;60018;49.688;19.180;2022-09-27T03:15:07;2.00;;;1.73;;
72139;SDS011;60018;49.688;19.180;2022-09-27T03:17:32;2.00;;;1.73;;
72139;SDS011;60018;49.688;19.180;2022-09-27T03:19:57;2.00;;;1.77;;
72139;SDS011;60018;49.688;19.180;2022-09-27T03:22:23;1.80;;;1.53;;
72139;SDS011;60018;49.688;19.180;2022-09-27T03:24:48;1.83;;;1.53;;
72139;SDS011;60018;49.688;19.180;2022-09-27T03:27:13;1.80;;;1.53;;
72139;SDS011;60018;49.688;19.180;2022-09-27T03:29:40;1.60;;;1.47;;
72139;SDS011;60018;49.688;19.180;2022-09-27T03:32:05;1.87;;;1.67;;
72139;SDS011;60018;49.688;19.180;2022-09-27T03:34:30;1.93;;;1.67;;
72139;SDS011;60018;49.688;19.180;2022-09-27T03:36:55;2.20;;;2.00;;
72139;SDS011;60018;49.688;19.180;2022-09-27T03:39:20;2.17;;;1.97;;
72139;SDS011;60018;49.688;19.180;2022-09-27T03:41:46;2.30;;;2.10;;
72139;SDS011;60018;49.688;19.180;2022-09-27T03:44:11;2.27;;;2.07;;
72139;SDS011;60018;49.688;19.180;2022-09-27T03:46:37;2.17;;;1.97;;
72139;SDS011;60018;49.688;19.180;2022-09-27T03:49:02;2.03;;;1.73;;
72139;SDS011;60018;49.688;19.180;2022-09-27T03:51:28;1.90;;;1.63;;
72139;SDS011;60018;49.688;19.180;2022-09-27T03:53:53;1.87;;;1.63;;
72139;SDS011;60018;49.688;19.180;2022-09-27T03:56:18;2.03;;;1.83;;
72139;SDS011;60018;49.688;19.180;2022-09-27T03:58:43;1.77;;;1.53;;
72139;SDS011;60018;49.688;19.180;2022-09-27T04:01:08;1.80;;;1.53;;
72139;SDS011;60018;49.688;19.180;2022-09-27T04:03:35;2.00;;;1.77;;
72139;SDS011;60018;49.688;19.180;2022-09-27T04:06:00;1.57;;;1.47;;
72139;SDS011;60018;49.688;19.180;2022-09-27T04:08:25;1.90;;;1.67;;
72139;SDS011;60018;49.688;19.180;2022-09-27T04:10:51;1.77;;;1.67;;
72139;SDS011;60018;49.688;19.180;2022-09-27T04:13:16;1.33;;;1.23;;
72139;SDS011;60018;49.688;19.180;2022-09-27T04:15:41;2.07;;;1.80;;
72139;SDS011;60018;49.688;19.180;2022-09-27T04:18:06;2.10;;;1.90;;
72139;SDS011;60018;49.688;19.180;2022-09-27T04:20:33;1.60;;;1.50;;
72139;SDS011;60018;49.688;19.180;2022-09-27T04:22:59;1.80;;;1.33;;
72139;SDS011;60018;49.688;19.180;2022-09-27T04:25:24;1.70;;;1.60;;
72139;SDS011;60018;49.688;19.180;2022-09-27T04:27:49;1.80;;;1.57;;
72139;SDS011;60018;49.688;19.180;2022-09-27T04:30:14;1.70;;;1.43;;
72139;SDS011;60018;49.688;19.180;2022-09-27T04:32:40;1.70;;;1.53;;
72139;SDS011;60018;49.688;19.180;2022-09-27T04:35:06;1.83;;;1.57;;
72139;SDS011;60018;49.688;19.180;2022-09-27T04:37:32;1.80;;;1.53;;
72139;SDS011;60018;49.688;19.180;2022-09-27T04:39:57;1.93;;;1.67;;
72139;SDS011;60018;49.688;19.180;2022-09-27T04:42:22;2.03;;;1.80;;
72139;SDS011;60018;49.688;19.180;2022-09-27T04:44:48;1.97;;;1.63;;
72139;SDS011;60018;49.688;19.180;2022-09-27T04:47:13;2.23;;;2.03;;
72139;SDS011;60018;49.688;19.180;2022-09-27T04:49:38;1.97;;;1.73;;
72139;SDS011;60018;49.688;19.180;2022-09-27T04:52:03;2.17;;;1.97;;
72139;SDS011;60018;49.688;19.180;2022-09-27T04:54:30;2.23;;;2.03;;
72139;SDS011;60018;49.688;19.180;2022-09-27T04:56:55;2.27;;;2.07;;
72139;SDS011;60018;49.688;19.180;2022-09-27T04:59:20;2.13;;;1.93;;
72139;SDS011;60018;49.688;19.180;2022-09-27T05:01:45;2.43;;;2.23;;
72139;SDS011;60018;49.688;19.180;2022-09-27T05:04:11;2.17;;;1.97;;
72139;SDS011;60018;49.688;19.180;2022-09-27T05:06:36;2.03;;;1.80;;
72139;SDS011;60018;49.688;19.180;2022-09-27T05:09:01;2.33;;;2.13;;
72139;SDS011;60018;49.688;19.180;2022-09-27T05:11:28;2.17;;;1.97;;
72139;SDS011;60018;49.688;19.180;2022-09-27T05:13:53;2.23;;;2.03;;
72139;SDS011;60018;49.688;19.180;2022-09-27T05:16:18;2.33;;;2.13;;
72139;SDS011;60018;49.688;19.180;2022-09-27T05:18:43;2.00;;;1.80;;
72139;SDS011;60018;49.688;19.180;2022-09-27T05:21:08;2.63;;;2.43;;
72139;SDS011;60018;49.688;19.180;2022-09-27T05:23:33;2.00;;;1.67;;
72139;SDS011;60018;49.688;19.180;2022-09-27T05:26:02;2.27;;;2.07;;
72139;SDS011;60018;49.688;19.180;2022-09-27T05:28:28;1.93;;;1.67;;
72139;SDS011;60018;49.688;19.180;2022-09-27T05:30:54;2.03;;;1.83;;
72139;SDS011;60018;49.688;19.180;2022-09-27T05:33:19;2.17;;;1.97;;
72139;SDS011;60018;49.688;19.180;2022-09-27T05:35:49;2.13;;;1.90;;
72139;SDS011;60018;49.688;19.180;2022-09-27T05:38:15;2.07;;;1.80;;
72139;SDS011;60018;49.688;19.180;2022-09-27T05:40:40;2.37;;;2.17;;
72139;SDS011;60018;49.688;19.180;2022-09-27T05:43:06;2.40;;;2.20;;
72139;SDS011;60018;49.688;19.180;2022-09-27T05:45:32;2.37;;;2.17;;
72139;SDS011;60018;49.688;19.180;2022-09-27T05:47:57;2.23;;;2.03;;
72139;SDS011;60018;49.688;19.180;2022-09-27T05:50:23;2.30;;;2.10;;
72139;SDS011;60018;49.688;19.180;2022-09-27T05:52:48;2.53;;;2.33;;
72139;SDS011;60018;49.688;19.180;2022-09-27T05:55:13;2.40;;;2.20;;
72139;SDS011;60018;49.688;19.180;2022-09-27T05:57:39;2.30;;;2.10;;
72139;SDS011;60018;49.688;19.180;2022-09-27T06:00:04;2.47;;;2.27;;
72139;SDS011;60018;49.688;19.180;2022-09-27T06:02:31;2.33;;;2.13;;
72139;SDS011;60018;49.688;19.180;2022-09-27T06:04:56;2.17;;;1.97;;
72139;SDS011;60018;49.688;19.180;2022-09-27T06:07:21;2.33;;;2.13;;
72139;SDS011;60018;49.688;19.180;2022-09-27T06:09:46;2.47;;;2.27;;
72139;SDS011;60018;49.688;19.180;2022-09-27T06:12:12;2.47;;;2.28;;
72139;SDS011;60018;49.688;19.180;2022-09-27T06:14:37;2.15;;;1.95;;
72139;SDS011;60018;49.688;19.180;2022-09-27T06:17:02;2.23;;;2.03;;
72139;SDS011;60018;49.688;19.180;2022-09-27T06:19:29;2.25;;;2.05;;
72139;SDS011;60018;49.688;19.180;2022-09-27T06:21:54;2.28;;;2.08;;
72139;SDS011;60018;49.688;19.180;2022-09-27T06:24:19;2.67;;;2.47;;
72139;SDS011;60018;49.688;19.180;2022-09-27T06:26:44;2.38;;;2.17;;
72139;SDS011;60018;49.688;19.180;2022-09-27T06:29:09;2.50;;;2.30;;
72139;SDS011;60018;49.688;19.180;2022-09-27T06:31:35;3.25;;;3.05;;
72139;SDS011;60018;49.688;19.180;2022-09-27T06:34:00;2.25;;;2.05;;
72139;SDS011;60018;49.688;19.180;2022-09-27T06:36:26;2.38;;;2.17;;
72139;SDS011;60018;49.688;19.180;2022-09-27T06:38:52;2.30;;;2.10;;
72139;SDS011;60018;49.688;19.180;2022-09-27T06:41:17;2.13;;;1.92;;
72139;SDS011;60018;49.688;19.180;2022-09-27T06:43:42;2.38;;;2.17;;
72139;SDS011;60018;49.688;19.180;2022-09-27T06:46:07;2.55;;;2.35;;
72139;SDS011;60018;49.688;19.180;2022-09-27T06:48:33;2.65;;;2.45;;
72139;SDS011;60018;49.688;19.180;2022-09-27T06:50:58;2.28;;;2.08;;
72139;SDS011;60018;49.688;19.180;2022-09-27T06:53:25;2.30;;;2.10;;
72139;SDS011;60018;49.688;19.180;2022-09-27T06:55:50;2.10;;;1.90;;
72139;SDS011;60018;49.688;19.180;2022-09-27T06:58:16;1.98;;;1.65;;
72139;SDS011;60018;49.688;19.180;2022-09-27T07:00:41;1.98;;;1.65;;
72139;SDS011;60018;49.688;19.180;2022-09-27T07:03:07;1.90;;;1.45;;
72139;SDS011;60018;49.688;19.180;2022-09-27T07:05:33;1.65;;;1.33;;
72139;SDS011;60018;49.688;19.180;2022-09-27T07:07:58;1.90;;;1.50;;
72139;SDS011;60018;49.688;19.180;2022-09-27T07:10:26;1.70;;;1.35;;
72139;SDS011;60018;49.688;19.180;2022-09-27T07:12:51;1.55;;;1.35;;
72139;SDS011;60018;49.688;19.180;2022-09-27T07:15:16;1.85;;;1.40;;
72139;SDS011;60018;49.688;19.180;2022-09-27T07:17:42;1.80;;;1.38;;
72139;SDS011;60018;49.688;19.180;2022-09-27T07:20:07;1.92;;;1.50;;
72139;SDS011;60018;49.688;19.180;2022-09-27T07:22:37;1.85;;;1.45;;
72139;SDS011;60018;49.688;19.180;2022-09-27T07:25:03;1.88;;;1.50;;
72139;SDS011;60018;49.688;19.180;2022-09-27T07:27:30;1.90;;;1.48;;
72139;SDS011;60018;49.688;19.180;2022-09-27T07:29:55;1.92;;;1.55;;
72139;SDS011;60018;49.688;19.180;2022-09-27T07:32:20;1.90;;;1.50;;
72139;SDS011;60018;49.688;19.180;2022-09-27T07:34:45;1.75;;;1.48;;
72139;SDS011;60018;49.688;19.180;2022-09-27T07:37:11;1.85;;;1.40;;
72139;SDS011;60018;49.688;19.180;2022-09-27T07:39:36;1.85;;;1.45;;
72139;SDS011;60018;49.688;19.180;2022-09-27T07:42:01;1.90;;;1.52;;
72139;SDS011;60018;49.688;19.180;2022-09-27T07:44:28;1.95;;;1.60;;
72139;SDS011;60018;49.688;19.180;2022-09-27T07:46:53;1.98;;;1.65;;
72139;SDS011;60018;49.688;19.180;2022-09-27T07:49:18;1.90;;;1.58;;
72139;SDS011;60018;49.688;19.180;2022-09-27T07:51:43;2.00;;;1.67;;
72139;SDS011;60018;49.688;19.180;2022-09-27T07:54:08;1.95;;;1.52;;
72139;SDS011;60018;49.688;19.180;2022-09-27T07:56:34;2.00;;;1.65;;
72139;SDS011;60018;49.688;19.180;2022-09-27T07:58:59;2.00;;;1.65;;
72139;SDS011;60018;49.688;19.180;2022-09-27T08:01:25;2.00;;;1.63;;
72139;SDS011;60018;49.688;19.180;2022-09-27T08:03:51;2.00;;;1.67;;
72139;SDS011;60018;49.688;19.180;2022-09-27T08:06:16;2.00;;;1.75;;
72139;SDS011;60018;49.688;19.180;2022-09-27T08:08:41;2.03;;;1.83;;
72139;SDS011;60018;49.688;19.180;2022-09-27T08:11:09;2.05;;;1.83;;
72139;SDS011;60018;49.688;19.180;2022-09-27T08:13:35;2.00;;;1.73;;
72139;SDS011;60018;49.688;19.180;2022-09-27T08:16:00;2.00;;;1.80;;
72139;SDS011;60018;49.688;19.180;2022-09-27T08:18:27;2.10;;;1.90;;
72139;SDS011;60018;49.688;19.180;2022-09-27T08:20:54;2.13;;;1.92;;
72139;SDS011;60018;49.688;19.180;2022-09-27T08:23:19;2.15;;;1.95;;
72139;SDS011;60018;49.688;19.180;2022-09-27T08:25:50;2.13;;;1.90;;
72139;SDS011;60018;49.688;19.180;2022-09-27T08:28:15;2.10;;;1.90;;
72139;SDS011;60018;49.688;19.180;2022-09-27T08:30:40;2.10;;;1.90;;
72139;SDS011;60018;49.688;19.180;2022-09-27T08:33:05;2.08;;;1.88;;
72139;SDS011;60018;49.688;19.180;2022-09-27T08:35:32;2.03;;;1.83;;
72139;SDS011;60018;49.688;19.180;2022-09-27T08:37:58;2.00;;;1.75;;
72139;SDS011;60018;49.688;19.180;2022-09-27T08:40:24;2.25;;;2.05;;
72139;SDS011;60018;49.688;19.180;2022-09-27T08:42:53;2.05;;;1.85;;
72139;SDS011;60018;49.688;19.180;2022-09-27T08:45:23;2.17;;;1.98;;
72139;SDS011;60018;49.688;19.180;2022-09-27T08:47:52;2.17;;;1.98;;
72139;SDS011;60018;49.688;19.180;2022-09-27T08:50:21;2.20;;;2.00;;
72139;SDS011;60018;49.688;19.180;2022-09-27T08:52:51;2.28;;;2.08;;
72139;SDS011;60018;49.688;19.180;2022-09-27T08:55:19;2.03;;;1.83;;
72139;SDS011;60018;49.688;19.180;2022-09-27T08:57:45;2.25;;;2.05;;
72139;SDS011;60018;49.688;19.180;2022-09-27T09:00:14;2.22;;;2.03;;
72139;SDS011;60018;49.688;19.180;2022-09-27T09:02:39;2.15;;;1.95;;
72139;SDS011;60018;49.688;19.180;2022-09-27T09:05:06;2.30;;;2.10;;
72139;SDS011;60018;49.688;19.180;2022-09-27T09:07:36;2.25;;;2.05;;
72139;SDS011;60018;49.688;19.180;2022-09-27T09:10:14;2.10;;;1.88;;
72139;SDS011;60018;49.688;19.180;2022-09-27T09:12:44;2.35;;;2.15;;
72139;SDS011;60018;49.688;19.180;2022-09-27T09:15:16;2.25;;;2.05;;
72139;SDS011;60018;49.688;19.180;2022-09-27T09:17:53;2.10;;;1.88;;
72139;SDS011;60018;49.688;19.180;2022-09-27T09:20:21;2.85;;;2.65;;
72139;SDS011;60018;49.688;19.180;2022-09-27T09:22:53;2.17;;;1.98;;
72139;SDS011;60018;49.688;19.180;2022-09-27T09:25:25;2.00;;;1.75;;
72139;SDS011;60018;49.688;19.180;2022-09-27T09:27:53;2.08;;;1.88;;
72139;SDS011;60018;49.688;19.180;2022-09-27T09:30:23;2.17;;;1.98;;
72139;SDS011;60018;49.688;19.180;2022-09-27T09:32:52;2.08;;;1.88;;
72139;SDS011;60018;49.688;19.180;2022-09-27T09:35:20;2.17;;;1.98;;
72139;SDS011;60018;49.688;19.180;2022-09-27T09:37:48;2.13;;;1.92;;
72139;SDS011;60018;49.688;19.180;2022-09-27T09:40:16;2.25;;;2.05;;
72139;SDS011;60018;49.688;19.180;2022-09-27T09:42:45;2.33;;;2.13;;
72139;SDS011;60018;49.688;19.180;2022-09-27T09:45:14;2.30;;;2.10;;
72139;SDS011;60018;49.688;19.180;2022-09-27T09:47:41;2.30;;;2.10;;
72139;SDS011;60018;49.688;19.180;2022-09-27T09:50:13;2.35;;;2.15;;
72139;SDS011;60018;49.688;19.180;2022-09-27T09:52:41;2.00;;;1.63;;
72139;SDS011;60018;49.688;19.180;2022-09-27T09:55:12;2.25;;;2.05;;
72139;SDS011;60018;49.688;19.180;2022-09-27T09:57:41;2.10;;;1.90;;
72139;SDS011;60018;49.688;19.180;2022-09-27T10:00:13;2.40;;;2.20;;
72139;SDS011;60018;49.688;19.180;2022-09-27T10:02:39;2.40;;;2.20;;
72139;SDS011;60018;49.688;19.180;2022-09-27T10:05:06;2.55;;;2.35;;
72139;SDS011;60018;49.688;19.180;2022-09-27T10:07:32;2.28;;;2.08;;
72139;SDS011;60018;49.688;19.180;2022-09-27T10:09:58;2.75;;;2.55;;
72139;SDS011;60018;49.688;19.180;2022-09-27T10:12:24;2.22;;;2.03;;
72139;SDS011;60018;49.688;19.180;2022-09-27T10:14:49;3.10;;;2.90;;
72139;SDS011;60018;49.688;19.180;2022-09-27T10:17:19;2.35;;;2.15;;
72139;SDS011;60018;49.688;19.180;2022-09-27T10:19:45;2.47;;;2.28;;
72139;SDS011;60018;49.688;19.180;2022-09-27T10:22:12;2.45;;;2.25;;
72139;SDS011;60018;49.688;19.180;2022-09-27T10:24:51;2.38;;;2.17;;
72139;SDS011;60018;49.688;19.180;2022-09-27T10:27:17;2.22;;;2.03;;
72139;SDS011;60018;49.688;19.180;2022-09-27T10:29:42;2.25;;;2.05;;
72139;SDS011;60018;49.688;19.180;2022-09-27T10:32:17;2.45;;;2.25;;
72139;SDS011;60018;49.688;19.180;2022-09-27T10:34:44;2.40;;;2.20;;
72139;SDS011;60018;49.688;19.180;2022-09-27T10:37:14;2.65;;;2.45;;
72139;SDS011;60018;49.688;19.180;2022-09-27T10:39:40;2.40;;;2.20;;
72139;SDS011;60018;49.688;19.180;2022-09-27T10:42:18;2.50;;;2.30;;
72139;SDS011;60018;49.688;19.180;2022-09-27T10:44:43;2.53;;;2.33;;
72139;SDS011;60018;49.688;19.180;2022-09-27T10:47:08;2.47;;;2.28;;
72139;SDS011;60018;49.688;19.180;2022-09-27T10:49:37;2.33;;;2.13;;
72139;SDS011;60018;49.688;19.180;2022-09-27T10:52:06;2.35;;;2.15;;
72139;SDS011;60018;49.688;19.180;2022-09-27T10:54:32;2.45;;;2.25;;
72139;SDS011;60018;49.688;19.180;2022-09-27T10:56:58;2.22;;;2.03;;
72139;SDS011;60018;49.688;19.180;2022-09-27T10:59:24;2.45;;;2.25;;
72139;SDS011;60018;49.688;19.180;2022-09-27T11:01:50;2.40;;;2.20;;
72139;SDS011;60018;49.688;19.180;2022-09-27T11:04:17;2.33;;;2.13;;
72139;SDS011;60018;49.688;19.180;2022-09-27T11:06:43;2.50;;;2.30;;
72139;SDS011;60018;49.688;19.180;2022-09-27T11:09:14;2.20;;;2.00;;
72139;SDS011;60018;49.688;19.180;2022-09-27T11:11:40;2.30;;;2.10;;
72139;SDS011;60018;49.688;19.180;2022-09-27T11:14:16;2.17;;;1.98;;
72139;SDS011;60018;49.688;19.180;2022-09-27T11:16:46;2.15;;;1.95;;
72139;SDS011;60018;49.688;19.180;2022-09-27T11:19:15;2.10;;;1.90;;
72139;SDS011;60018;49.688;19.180;2022-09-27T11:21:46;2.35;;;2.15;;
72139;SDS011;60018;49.688;19.180;2022-09-27T11:24:19;2.25;;;2.05;;
72139;SDS011;60018;49.688;19.180;2022-09-27T11:26:48;2.00;;;1.80;;
72139;SDS011;60018;49.688;19.180;2022-09-27T11:29:21;2.22;;;2.03;;
72139;SDS011;60018;49.688;19.180;2022-09-27T11:34:22;2.30;;;2.10;;
72139;SDS011;60018;49.688;19.180;2022-09-27T11:36:57;2.15;;;1.95;;
72139;SDS011;60018;49.688;19.180;2022-09-27T11:39:25;2.35;;;2.15;;
72139;SDS011;60018;49.688;19.180;2022-09-27T11:41:55;2.22;;;2.03;;
72139;SDS011;60018;49.688;19.180;2022-09-27T11:44:28;2.00;;;1.75;;
72139;SDS011;60018;49.688;19.180;2022-09-27T11:46:57;2.03;;;1.80;;
72139;SDS011;60018;49.688;19.180;2022-09-27T11:52:12;2.00;;;1.77;;
72139;SDS011;60018;49.688;19.180;2022-09-27T11:54:47;2.22;;;2.03;;
72139;SDS011;60018;49.688;19.180;2022-09-27T11:57:15;1.97;;;1.63;;
72139;SDS011;60018;49.688;19.180;2022-09-27T11:59:49;2.35;;;2.15;;
72139;SDS011;60018;49.688;19.180;2022-09-27T12:02:36;2.25;;;2.05;;
72139;SDS011;60018;49.688;19.180;2022-09-27T12:05:06;2.22;;;2.03;;
72139;SDS011;60018;49.688;19.180;2022-09-27T12:07:39;2.25;;;2.05;;
72139;SDS011;60018;49.688;19.180;2022-09-27T12:10:08;2.28;;;2.08;;
72139;SDS011;60018;49.688;19.180;2022-09-27T12:12:34;2.15;;;1.95;;
72139;SDS011;60018;49.688;19.180;2022-09-27T12:15:02;2.05;;;1.83;;
72139;SDS011;60018;49.688;19.180;2022-09-27T12:17:28;2.05;;;1.85;;
72139;SDS011;60018;49.688;19.180;2022-09-27T12:19:55;2.38;;;2.17;;
72139;SDS011;60018;49.688;19.180;2022-09-27T12:22:22;2.40;;;2.20;;
72139;SDS011;60018;49.688;19.180;2022-09-27T12:24:49;2.03;;;1.83;;
72139;SDS011;60018;49.688;19.180;2022-09-27T12:27:18;2.28;;;2.08;;
72139;SDS011;60018;49.688;19.180;2022-09-27T12:29:45;2.20;;;2.00;;
72139;SDS011;60018;49.688;19.180;2022-09-27T12:32:13;2.05;;;1.85;;
72139;SDS011;60018;49.688;19.180;2022-09-27T12:34:41;2.03;;;1.83;;
72139;SDS011;60018;49.688;19.180;2022-09-27T12:37:09;2.05;;;1.85;;
72139;SDS011;60018;49.688;19.180;2022-09-27T12:39:37;2.08;;;1.85;;
72139;SDS011;60018;49.688;19.180;2022-09-27T12:42:09;2.28;;;2.08;;
72139;SDS011;60018;49.688;19.180;2022-09-27T12:44:39;2.25;;;2.05;;
72139;SDS011;60018;49.688;19.180;2022-09-27T12:47:06;2.15;;;1.95;;
72139;SDS011;60018;49.688;19.180;2022-09-27T12:49:39;2.22;;;2.03;;
72139;SDS011;60018;49.688;19.180;2022-09-27T12:52:08;2.10;;;1.85;;
72139;SDS011;60018;49.688;19.180;2022-09-27T12:54:53;2.13;;;1.92;;
72139;SDS011;60018;49.688;19.180;2022-09-27T12:57:22;2.05;;;1.85;;
72139;SDS011;60018;49.688;19.180;2022-09-27T12:59:57;2.20;;;2.00;;
72139;SDS011;60018;49.688;19.180;2022-09-27T13:02:39;2.55;;;2.35;;
72139;SDS011;60018;49.688;19.180;2022-09-27T13:05:26;2.35;;;2.15;;
72139;SDS011;60018;49.688;19.180;2022-09-27T13:07:59;2.53;;;2.33;;
72139;SDS011;60018;49.688;19.180;2022-09-27T13:10:30;2.42;;;2.22;;
72139;SDS011;60018;49.688;19.180;2022-09-27T13:12:58;2.50;;;2.30;;
72139;SDS011;60018;49.688;19.180;2022-09-27T13:15:26;2.47;;;2.28;;
72139;SDS011;60018;49.688;19.180;2022-09-27T13:17:53;2.53;;;2.33;;
72139;SDS011;60018;49.688;19.180;2022-09-27T13:25:58;2.40;;;2.20;;
72139;SDS011;60018;49.688;19.180;2022-09-27T13:28:33;2.47;;;2.28;;
72139;SDS011;60018;49.688;19.180;2022-09-27T13:31:00;2.40;;;2.20;;
72139;SDS011;60018;49.688;19.180;2022-09-27T13:33:30;2.00;;;1.75;;
72139;SDS011;60018;49.688;19.180;2022-09-27T13:36:06;2.00;;;1.77;;
72139;SDS011;60018;49.688;19.180;2022-09-27T13:38:31;2.05;;;1.83;;
72139;SDS011;60018;49.688;19.180;2022-09-27T13:41:11;2.00;;;1.73;;
72139;SDS011;60018;49.688;19.180;2022-09-27T13:43:45;2.03;;;1.77;;
72139;SDS011;60018;49.688;19.180;2022-09-27T13:46:17;2.00;;;1.75;;
72139;SDS011;60018;49.688;19.180;2022-09-27T13:48:45;2.03;;;1.77;;
72139;SDS011;60018;49.688;19.180;2022-09-27T13:51:15;2.00;;;1.75;;
72139;SDS011;60018;49.688;19.180;2022-09-27T13:53:41;2.35;;;2.15;;
72139;SDS011;60018;49.688;19.180;2022-09-27T13:56:52;2.42;;;2.22;;
72139;SDS011;60018;49.688;19.180;2022-09-27T13:58:53;2.25;;;2.05;;
72139;SDS011;60018;49.688;19.180;2022-09-27T14:01:22;2.28;;;2.08;;
72139;SDS011;60018;49.688;19.180;2022-09-27T14:03:50;2.35;;;2.15;;
72139;SDS011;60018;49.688;19.180;2022-09-27T14:06:16;2.30;;;2.10;;
72139;SDS011;60018;49.688;19.180;2022-09-27T14:08:44;2.28;;;2.08;;
72139;SDS011;60018;49.688;19.180;2022-09-27T14:11:11;2.45;;;2.25;;
72139;SDS011;60018;49.688;19.180;2022-09-27T14:13:37;2.15;;;1.95;;
72139;SDS011;60018;49.688;19.180;2022-09-27T14:16:03;2.13;;;1.92;;
72139;SDS011;60018;49.688;19.180;2022-09-27T14:18:30;2.15;;;1.95;;
72139;SDS011;60018;49.688;19.180;2022-09-27T14:21:05;2.17;;;1.98;;
72139;SDS011;60018;49.688;19.180;2022-09-27T14:23:32;2.25;;;2.05;;
72139;SDS011;60018;49.688;19.180;2022-09-27T14:25:58;2.05;;;1.83;;
72139;SDS011;60018;49.688;19.180;2022-09-27T14:28:23;2.05;;;1.85;;
72139;SDS011;60018;49.688;19.180;2022-09-27T14:31:03;2.00;;;1.75;;
72139;SDS011;60018;49.688;19.180;2022-09-27T14:33:30;2.05;;;1.80;;
72139;SDS011;60018;49.688;19.180;2022-09-27T14:35:55;2.03;;;1.83;;
72139;SDS011;60018;49.688;19.180;2022-09-27T14:38:21;2.00;;;1.73;;
72139;SDS011;60018;49.688;19.180;2022-09-27T14:40:55;2.00;;;1.67;;
72139;SDS011;60018;49.688;19.180;2022-09-27T14:43:22;2.10;;;1.88;;
72139;SDS011;60018;49.688;19.180;2022-09-27T14:45:47;2.00;;;1.73;;
72139;SDS011;60018;49.688;19.180;2022-09-27T14:48:18;2.00;;;1.65;;
72139;SDS011;60018;49.688;19.180;2022-09-27T14:50:53;2.00;;;1.75;;
72139;SDS011;60018;49.688;19.180;2022-09-27T14:53:19;2.05;;;1.83;;
72139;SDS011;60018;49.688;19.180;2022-09-27T14:55:45;2.05;;;1.85;;